Latest Coastal Weather Observations for Low Head

IDT60701

Issued at 5:35 pm EST Tuesday 16 September 2014 (issued every 10 minutes, with the page automatically refreshed every 10 minutes)

About coastal observations | Map of coastal stations | Coastal observations for TAS | Marine services | Other Formats
Station Details ID: 091293 Name: LOW HEAD Lat: -41.05 Lon: 146.79 Height: 3.0 m
Data from the previous 72 hours. | See also: Recent months at Low Head
Date/Time
EST
Temp

°C
Wind Pressure Rain
since 9am
mm
Weather Cloud Vis
km
Sea
Height
m
Swell
Dir
 
Speed
knots
Gust
knots
hPa Trend Height
m
Period
s
Dir
16/05:30pm 9.4 SSE 12 14 1009.4 - 14.2 - - - - - - -
16/05:00pm 9.4 SSE 12 15 1009.5 - 14.2 - - - - - - -
16/04:30pm 9.2 SE 8 11 1009.3 - 14.0 - - - - - - -
16/04:00pm 9.6 SSE 8 11 1009.7 - 13.0 - - - - - - -
16/03:30pm 9.9 S 9 11 1009.9 - 10.4 - - - - - - -
16/03:00pm 9.6 S 7 8 1010.0 R 9.4 Showers Cloudy 10 <0.1 0.3 3 NW
16/02:30pm 9.6 S 8 10 1010.2 - 7.6 - - - - - - -
16/02:00pm 10.1 S 9 11 1010.0 - 5.6 - - - - - - -
16/01:30pm 9.7 S 8 10 1010.1 - 5.2 - - - - - - -
16/01:00pm 9.6 SSE 9 11 1010.1 - 5.0 - - - - - - -
16/12:30pm 9.7 SSE 7 11 1010.4 - 4.2 - - - - - - -
16/12:00pm 9.7 SE 7 9 1010.7 - 1.8 - - - - - - -
16/11:30am 9.9 SSE 7 8 1011.2 - 1.0 - - - - - - -
16/11:00am 9.9 SSE 9 13 1011.6 - 0.4 - - - - - - -
16/10:30am 9.7 SSE 11 14 1011.9 - 0.4 - - - - - - -
16/10:00am 9.0 SSE 12 15 1012.2 - 0.4 - - - - - - -
16/09:30am 8.8 SSE 12 17 1012.5 - 0.2 - - - - - - -
16/09:00am 8.4 SSE 10 14 1012.8 F 2.8 Showers Cloudy 10 <0.1 0.3 3 NW
16/08:30am 8.2 SSE 9 12 1013.2 - 2.2 - - - - - - -
16/08:00am 8.4 SSE 9 11 1013.2 - 1.2 - - - - - - -
16/07:30am 8.6 SSE 9 11 1013.0 - 0.6 - - - - - - -
16/07:00am 8.6 SSE 9 13 1012.9 - 0.2 - - - - - - -
16/06:30am 8.6 SSE 10 13 1012.8 - 0.0 - - - - - - -
16/06:00am 8.7 SSE 9 11 1012.9 F 0.0 Distant precip. Cloudy 10 <0.1 0.3 3 -
16/05:30am 8.9 SSE 8 10 1013.1 - 0.0 - - - - - - -
16/05:00am 9.3 SSE 7 9 1013.0 - 0.0 - - - - - - -
16/04:30am 9.6 SSE 7 9 1013.1 - 0.0 - - - - - - -
16/04:00am 9.6 SE 6 9 1013.0 - 0.0 - - - - - - -
16/03:30am 9.8 ESE 6 9 1013.0 - 0.0 - - - - - - -
16/03:00am 9.8 ESE 7 10 1013.3 - 0.0 - - - - - - -
16/02:30am 9.8 E 9 12 1013.4 - 0.0 - - - - - - -
16/02:00am 9.9 E 10 13 1013.7 - 0.0 - - - - - - -
16/01:30am 9.9 E 10 13 1014.1 - 0.0 - - - - - - -
16/01:00am 10.0 E 11 14 1014.6 - 0.0 - - - - - - -
16/12:30am 10.0 E 11 14 1014.8 - 0.0 - - - - - - -
16/12:00am 10.2 E 13 16 1014.8 - 0.0 - - - - - - -
 
Date/Time
EST
Temp

°C
Wind Pressure Rain
since 9am
mm
Weather Cloud Vis
km
Sea
Height
m
Swell
Dir
 
Speed
knots
Gust
knots
hPa Trend Height
m
Period
s
Dir
15/11:30pm 10.4 E 15 18 1014.9 - 0.0 - - - - - - -
15/11:00pm 10.3 E 14 18 1015.3 - 0.0 - - - - - - -
15/10:30pm 10.4 E 13 16 1015.5 - 0.0 - - - - - - -
15/10:00pm 10.5 E 15 19 1015.7 - 0.0 - - - - - - -
15/09:30pm 10.8 E 15 18 1016.0 - 0.0 - - - - - - -
15/09:00pm 10.9 E 15 17 1016.2 - 0.0 - - - - - - -
15/08:30pm 11.3 E 15 19 1016.2 - 0.0 - - - - - - -
15/08:00pm 11.6 ENE 15 19 1016.3 - 0.0 - - - - - - -
15/07:30pm 11.6 ENE 13 16 1016.2 - 0.0 - - - - - - -
15/07:00pm 11.5 E 12 14 1015.8 - 0.0 - - - - - - -
15/06:30pm 12.0 ENE 15 17 1015.6 - 0.0 - - - - - - -
15/06:00pm 12.2 NE 13 15 1015.6 - 0.0 - - - - - - -
15/05:30pm 12.2 ENE 11 13 1015.4 - 0.0 - - - - - - -
15/05:00pm 12.4 NE 10 11 1015.5 - 0.0 - - - - - - -
15/04:30pm 12.3 NE 10 11 1015.4 - 0.0 - - - - - - -
15/04:00pm 12.5 NE 9 11 1015.5 - 0.0 - - - - - - -
15/03:30pm 12.4 NE 10 11 1015.6 - 0.0 - - - - - - -
15/03:00pm 12.6 NE 8 9 1015.7 F 0.0 Fine Mostly cloudy 25 1 0.5 3 NE
15/02:30pm 12.6 NNE 8 11 1016.1 - 0.0 - - - - - - -
15/02:00pm 12.9 NNE 8 9 1016.3 - 0.0 - - - - - - -
15/01:30pm 13.1 NNE 8 11 1016.5 - 0.0 - - - - - - -
15/01:00pm 12.6 NNE 8 9 1016.7 - 0.0 - - - - - - -
15/12:30pm 13.9 NNE 7 8 1017.0 - 0.0 - - - - - - -
15/12:00pm 13.2 NNE 8 10 1017.3 - 0.0 - - - - - - -
15/11:30am 12.9 NE 5 8 1017.4 - 0.0 - - - - - - -
15/11:00am 12.7 SSE 9 11 1017.7 - 0.0 - - - - - - -
15/10:30am 11.7 SSE 12 15 1018.1 - 0.0 - - - - - - -
15/10:00am 10.7 SSE 14 19 1018.4 - 0.0 - - - - - - -
15/09:30am 10.1 SSE 14 19 1018.5 - 0.0 - - - - - - -
15/09:00am 9.3 SSE 15 21 1018.3 F 0.0 Fine Mostly clear 25 <0.5 0.3 3 NE
15/08:30am 8.6 S 14 19 1018.7 - 0.0 - - - - - - -
15/08:00am 7.6 SSE 14 17 1018.5 - 0.0 - - - - - - -
15/07:30am 6.8 S 15 19 1018.4 - 0.0 - - - - - - -
15/07:00am 6.1 SSE 14 18 1018.1 - 0.0 - - - - - - -
15/06:30am 6.1 SSE 15 20 1017.9 - 0.0 - - - - - - -
15/06:00am 6.2 SSE 15 20 1017.6 F 0.0 Fine Mostly clear 25 <0.5 0.3 3 NE
15/05:30am 6.3 SSE 15 19 1017.3 - 0.0 - - - - - - -
15/05:00am 6.4 SSE 15 18 1017.4 - 0.0 - - - - - - -
15/04:30am 6.9 S 16 19 1017.4 - 0.0 - - - - - - -
15/04:00am 7.2 S 17 21 1017.4 - 0.0 - - - - - - -
15/03:30am 7.3 S 14 19 1017.5 - 0.0 - - - - - - -
15/03:00am 7.3 SSE 16 19 1017.6 - 0.0 - - - - - - -
15/02:30am 7.5 S 14 18 1017.8 - 0.0 - - - - - - -
15/02:00am 7.2 S 12 16 1017.9 - 0.0 - - - - - - -
15/01:30am 6.5 SE 8 11 1018.3 - 0.0 - - - - - - -
15/01:00am 7.0 ESE 6 8 1018.5 - 0.0 - - - - - - -
15/12:30am 7.2 SE 7 10 1018.3 - 0.0 - - - - - - -
15/12:00am 7.7 SE 8 11 1018.2 - 0.0 - - - - - - -
 
Date/Time
EST
Temp

°C
Wind Pressure Rain
since 9am
mm
Weather Cloud Vis
km
Sea
Height
m
Swell
Dir
 
Speed
knots
Gust
knots
hPa Trend Height
m
Period
s
Dir
14/11:30pm 8.7 S 12 16 1018.1 - 0.0 - - - - - - -
14/11:00pm 8.0 SSE 6 10 1018.3 - 0.0 - - - - - - -
14/10:30pm 8.6 S 4 6 1018.4 - 0.0 - - - - - - -
14/10:00pm 9.6 SE 4 4 1018.4 - 0.0 - - - - - - -
14/09:30pm 9.7 ESE 3 6 1018.3 - 0.0 - - - - - - -
14/09:00pm 10.2 SSE 1 4 1018.1 - 0.0 - - - - - - -
14/08:30pm 9.5 S 6 7 1017.5 - 0.0 - - - - - - -
14/08:00pm 10.2 S 8 9 1017.1 - 0.0 - - - - - - -
14/07:30pm 11.8 S 6 7 1016.8 - 0.0 - - - - - - -
14/07:00pm 12.8 SW 9 9 1016.5 - 0.0 - - - - - - -
14/06:30pm 13.3 SW 8 9 1016.1 - 0.0 - - - - - - -
14/06:00pm 14.4 SW 14 19 1015.7 - 0.0 - - - - - - -
14/05:30pm 15.1 WSW 14 17 1015.4 - 0.0 - - - - - - -
14/05:00pm 15.3 SW 17 24 1015.4 - 0.0 - - - - - - -
14/04:30pm 14.6 W 14 17 1015.3 - 0.0 - - - - - - -
14/04:00pm 15.3 W 17 21 1015.3 - 0.0 - - - - - - -
14/03:30pm 15.2 W 17 19 1015.3 - 0.0 - - - - - - -
14/03:00pm 15.6 W 17 21 1015.2 R 0.0 Fine Mostly clear 25 1 1.0 3 NW
14/02:30pm 15.2 W 17 19 1015.4 - 0.0 - - - - - - -
14/02:00pm 15.0 W 17 21 1015.4 - 0.0 - - - - - - -
14/01:30pm 15.2 WNW 18 21 1015.5 - 0.0 - - - - - - -
14/01:00pm 14.7 W 19 22 1015.6 - 0.0 - - - - - - -
14/12:30pm 14.4 W 21 25 1015.8 - 0.0 - - - - - - -
14/12:00pm 14.4 W 19 22 1016.3 - 0.0 - - - - - - -
14/11:30am 14.6 W 20 23 1016.3 - 0.0 - - - - - - -
14/11:00am 14.1 W 23 25 1016.2 - 0.0 - - - - - - -
14/10:30am 14.4 WNW 17 21 1016.5 - 0.0 - - - - - - -
14/10:00am 14.0 WNW 20 23 1016.4 - 0.0 - - - - - - -
14/09:30am 13.5 W 20 23 1016.3 - 0.0 - - - - - - -
14/09:00am 13.2 WNW 21 25 1016.4 F 0.0 Fine Mostly clear 25 2 1.3 3 NW
14/08:30am 13.0 W 23 28 1016.4 - 0.0 - - - - - - -
14/08:00am 12.9 WNW 24 29 1016.4 - 0.0 - - - - - - -
14/07:30am 12.8 WNW 22 28 1016.4 - 0.0 - - - - - - -
14/07:00am 12.5 WNW 21 25 1016.3 - 0.0 - - - - - - -
14/06:30am 12.4 WNW 20 24 1016.4 - 0.0 - - - - - - -
14/06:00am 12.2 WNW 20 25 1016.4 F 0.0 Fine Mostly cloudy 20 1 1.0 3 NW
14/05:30am 12.0 WNW 18 23 1016.3 - 0.0 - - - - - - -
14/05:00am 11.9 WNW 18 23 1016.4 - 0.0 - - - - - - -
14/04:30am 11.7 WNW 16 19 1016.6 - 0.0 - - - - - - -
14/04:00am 11.6 WNW 16 19 1016.9 - 0.0 - - - - - - -
14/03:30am 11.4 WNW 17 20 1017.1 - 0.0 - - - - - - -
14/03:00am 11.5 W 19 22 1017.6 - 0.0 - - - - - - -
14/02:30am 11.6 W 18 21 1017.9 - 0.0 - - - - - - -
14/02:00am 11.7 W 20 23 1018.2 - 0.0 - - - - - - -
14/01:30am 11.7 WNW 17 20 1018.6 - 0.0 - - - - - - -
14/01:00am 11.6 W 18 21 1018.9 - 0.0 - - - - - - -
14/12:30am 11.6 W 18 21 1019.0 - 0.0 - - - - - - -
14/12:00am 11.5 WNW 18 21 1019.1 - 0.0 - - - - - - -
 
Date/Time
EST
Temp

°C
Wind Pressure Rain
since 9am
mm
Weather Cloud Vis
km
Sea
Height
m
Swell
Dir
 
Speed
knots
Gust
knots
hPa Trend Height
m
Period
s
Dir
13/11:30pm 11.6 W 15 19 1019.2 - 0.0 - - - - - - -
13/11:00pm 11.9 W 15 18 1019.3 - 0.0 - - - - - - -
13/10:30pm 12.1 W 18 21 1019.5 - 0.0 - - - - - - -
13/10:00pm 11.9 W 18 21 1019.6 - 0.0 - - - - - - -
13/09:30pm 11.9 W 19 21 1019.7 - 0.0 - - - - - - -
13/09:00pm 12.1 WNW 18 22 1019.8 - 0.0 - - - - - - -
13/08:30pm 12.0 WNW 19 22 1019.8 - 0.0 - - - - - - -
13/08:00pm 12.3 WNW 17 20 1019.8 - 0.0 - - - - - - -
13/07:30pm 12.4 WNW 20 24 1019.7 - 0.0 - - - - - - -
13/07:00pm 12.4 WNW 20 26 1019.4 - 0.0 - - - - - - -
13/06:30pm 12.4 WNW 20 25 1019.5 - 0.0 - - - - - - -
13/06:00pm 12.5 WNW 21 25 1019.5 - 0.0 - - - - - - -

Other Formats:

Comma delimited format used in spreadsheet applications
http://www.bom.gov.au/fwo/IDT60701/IDT60701.95964.axf

JavaScript Object Notation format (JSON) in row-major order
http://www.bom.gov.au/fwo/IDT60701/IDT60701.95964.json